ホノルル の空港の天気 - METARとTAF

ホノルル国際空港 ( PHNL / HNL ) - アメリカ ハワイ州ホノルル
飛行場実況気象(Metar)
観測時間09/22 12:53 HST (09/22 22:53 UTC)
風向・風速北東 5m/s
視程10km以上
天気現象
少しの雲 雲底高度 910m
全天の4割程度の雲 雲底高度 1280m
全天の4割程度の雲 雲底高度 1680m
全天の8割程度の雲 雲底高度 7920m
気温30.6℃
湿度50%
気圧1012.4hPa
METARPHNL 222253Z 05009KT 10SM FEW030 SCT042 SCT055 BKN260 31/19 A2990 RMK AO2 SLP124 T03060189
過去の天気等 Google飛行場航空写真 Wunderground天気予報

過去48時間のMETAR

飛行場予報(TAF)
発表時間: 9/22 13:32 HST (9/22 23:32 UTC)
予報対象時間: 22日14時 HST ~ 23日20時 HST
風向・風速東 6m/s
視程10km以上
少しの雲 雲底高度 910m
全天の4割程度の雲 雲底高度 1370m
全天の8割程度の雲 雲底高度 7920m
22日18時 HST から
風向・風速東北東 5m/s
視程10km以上
少しの雲 雲底高度 760m
全天の4割程度の雲 雲底高度 1520m
23日11時 HST から
風向・風速東南東 5m/s
視程10km以上
少しの雲 雲底高度 760m
全天の4割程度の雲 雲底高度 1370m
23日19時 HST から
風向・風速東北東 4m/s
視程10km以上
少しの雲 雲底高度 760m
全天の4割程度の雲 雲底高度 1370m
PHNL 222332Z 2300/2406 09011KT P6SM FEW030 SCT045 BKN260
FM230400 07010KT P6SM FEW025 SCT050
FM232100 12010KT P6SM FEW025 SCT045
FM240500 07007KT P6SM FEW025 SCT045